Latest Weather Observations for Melbourne (Olympic Park)

IDV60901

Issued at 5:51 pm EDT Saturday 28 February 2015 (issued every 10 minutes, with the page automatically refreshed every 10 minutes)

About weather observations | Map of Melbourne area stations | Latest observations for Melbourne area | Other Formats
Station Details ID: 086338 Name: MELBOURNE (OLYMPIC PARK) Lat: -37.83 Lon: 144.98 Height: 7.53 m
Data from the previous 72 hours. | See also: Recent months at Melbourne (Olympic Park)
Date/Time
EDT
Tmp

°C
App
Tmp
°C
Dew
Point
°C
Rel
Hum
%
Delta-T

°C
Wind Press
QNH
hPa
Press
MSL
hPa
Rain
since
9 am
mm
Dir
 
Spd
km/h
Gust
km/h
Spd
kts
Gust
kts
28/05:30pm 32.0 28.4 10.7 27 12.3 N 20 33 11 18 1000.6 1000.6 0.0
28/05:00pm 31.2 28.7 11.1 29 11.7 N 15 22 8 12 1001.4 1001.4 0.0
28/04:30pm 30.7 27.7 10.6 29 11.5 N 17 24 9 13 1001.7 1001.7 0.0
28/04:00pm 29.7 27.5 12.2 34 10.3 N 15 24 8 13 1002.1 1002.1 0.0
28/03:30pm 28.7 26.8 11.7 35 9.8 N 13 20 7 11 1002.4 1002.4 0.0
28/03:00pm 28.4 25.1 11.0 34 10.0 N 19 26 10 14 1002.7 1002.7 0.0
28/02:30pm 28.6 27.8 12.9 38 9.3 NE 9 15 5 8 1002.9 1002.9 0.0
28/02:00pm 26.4 24.6 12.1 41 8.3 NE 13 20 7 11 1003.7 1003.7 0.0
28/01:30pm 25.9 23.9 11.6 40 8.1 N 13 20 7 11 1004.4 1004.4 0.0
28/01:00pm 25.4 22.3 10.4 39 8.4 N 17 28 9 15 1005.0 1005.0 0.0
28/12:30pm 24.4 21.6 9.9 40 8.0 N 15 20 8 11 1005.7 1005.7 0.0
28/12:00pm 23.8 22.5 11.2 45 7.1 NNE 9 17 5 9 1005.8 1005.8 0.0
28/11:30am 23.6 22.0 11.6 47 6.8 NNE 11 20 6 11 1005.9 1005.9 0.0
28/11:00am 23.4 22.1 13.6 54 5.7 NNW 13 22 7 12 1006.4 1006.4 0.0
28/10:30am 21.7 20.9 15.1 66 3.9 NNE 13 20 7 11 1005.8 1005.8 0.0
28/10:00am 20.7 20.9 14.1 66 3.8 N 6 15 3 8 1006.3 1006.3 0.0
28/09:30am 20.1 20.4 14.9 72 3.1 NNE 7 13 4 7 1006.8 1006.8 0.0
28/09:00am 19.0 18.7 14.5 75 2.6 NNE 9 15 5 8 1006.9 1006.9 0.0
28/08:30am 19.2 18.8 14.0 72 3.0 NNE 9 15 5 8 1006.7 1006.7 0.0
28/08:00am 18.8 18.0 14.1 74 2.7 NNE 11 17 6 9 1006.4 1006.4 0.0
28/07:30am 18.4 17.1 13.7 74 2.7 NNE 13 20 7 11 1006.2 1006.2 0.0
28/07:00am 18.5 18.0 13.8 74 2.7 NNE 9 11 5 6 1006.3 1006.3 0.0
28/06:30am 18.6 19.4 13.7 73 2.8 NNE 2 9 1 5 1006.3 1006.3 0.0
28/06:00am 18.5 18.4 13.8 74 2.7 NW 7 17 4 9 1006.8 1006.8 0.0
28/05:30am 18.1 17.6 13.8 76 2.4 N 9 19 5 10 1006.4 1006.4 0.0
28/05:00am 18.0 18.0 13.7 76 2.5 NNE 6 9 3 5 1006.0 1006.0 0.0
28/04:30am 18.1 18.2 13.8 76 2.4 NNE 6 9 3 5 1006.7 1006.7 0.0
28/04:00am 18.0 18.0 13.7 76 2.4 ENE 6 9 3 5 1007.5 1007.5 0.0
28/03:30am 18.0 18.8 13.7 76 2.4 ESE 2 7 1 4 1008.2 1008.2 0.0
28/03:00am 18.0 18.3 13.5 75 2.6 ESE 4 7 2 4 1008.5 1008.5 0.0
28/02:30am 18.0 18.3 13.5 75 2.5 E 4 9 2 5 1008.9 1008.9 0.0
28/02:00am 18.0 18.7 13.3 74 2.7 E 2 7 1 4 1009.5 1009.5 0.0
28/01:30am 18.1 18.0 13.2 73 2.8 ESE 6 11 3 6 1009.8 1009.8 0.0
28/01:00am 18.4 19.0 13.0 71 3.0 SSE 2 9 1 5 1009.9 1009.9 0.0
28/12:30am 18.5 19.0 12.7 69 3.2 SSW 2 7 1 4 1010.5 1010.5 0.0
28/12:00am 18.7 19.2 12.9 69 3.3 SSE 2 9 1 5 1010.4 1010.4 0.0
 
Date/Time
EDT
Tmp

°C
App
Tmp
°C
Dew
Point
°C
Rel
Hum
%
Delta-T

°C
Wind Press
QNH
hPa
Press
MSL
hPa
Rain
since
9 am
mm
Dir
 
Spd
km/h
Gust
km/h
Spd
kts
Gust
kts
27/11:30pm 18.7 19.1 13.6 72 2.9 S 4 11 2 6 1010.7 1010.7 0.0
27/11:00pm 18.8 19.0 13.2 70 3.2 SSW 4 11 2 6 1011.1 1011.1 0.0
27/10:30pm 18.9 18.1 12.9 68 3.4 SSE 9 15 5 8 1010.9 1010.9 0.0
27/10:00pm 19.0 19.5 14.1 73 2.8 S 4 11 2 6 1010.9 1010.9 0.0
27/09:30pm 19.1 19.3 14.1 73 2.9 S 6 11 3 6 1010.7 1010.7 0.0
27/09:00pm 19.5 18.7 13.9 70 3.2 SSE 11 20 6 11 1010.4 1010.4 0.0
27/08:30pm 20.0 18.8 14.1 69 3.4 S 13 22 7 12 1010.0 1010.0 0.0
27/08:00pm 20.8 20.5 14.5 67 3.7 S 9 15 5 8 1009.4 1009.4 0.0
27/07:30pm 21.8 21.5 14.4 63 4.3 SSE 9 13 5 7 1009.0 1009.0 0.0
27/07:00pm 22.3 21.2 14.4 61 4.6 SE 13 19 7 10 1008.6 1008.6 0.0
27/06:30pm 22.8 21.9 13.6 56 5.3 SSE 11 17 6 9 1008.5 1008.5 0.0
27/06:00pm 22.7 21.7 12.3 52 5.9 S 9 15 5 8 1008.9 1008.9 0.0
27/05:30pm 23.0 21.1 10.4 45 6.9 SSE 11 17 6 9 1008.8 1008.8 0.0
27/05:00pm 23.2 21.9 11.3 47 6.7 S 9 17 5 9 1008.9 1008.9 0.0
27/04:30pm 23.6 22.2 11.0 45 7.0 S 9 17 5 9 1009.1 1009.1 0.0
27/04:00pm 23.4 21.2 10.8 45 7.0 SSW 13 20 7 11 1009.1 1009.1 0.0
27/03:30pm 23.8 22.8 13.4 52 6.0 SSW 11 20 6 11 1009.4 1009.4 0.0
27/03:00pm 23.4 21.8 12.7 51 6.1 SSW 13 20 7 11 1009.7 1009.7 0.0
27/02:30pm 23.2 21.9 12.5 51 6.1 SSW 11 19 6 10 1009.8 1009.8 0.0
27/02:00pm 23.0 21.5 13.2 54 5.7 SSW 13 19 7 10 1010.2 1010.2 0.0
27/01:30pm 22.9 22.3 13.4 55 5.5 SSW 9 17 5 9 1010.1 1010.1 0.0
27/01:00pm 22.5 22.3 13.6 57 5.2 SW 7 13 4 7 1010.6 1010.6 0.0
27/12:30pm 22.0 21.1 13.6 59 4.9 SSW 11 19 6 10 1011.1 1011.1 0.0
27/12:00pm 21.7 21.4 14.4 63 4.3 S 9 15 5 8 1010.9 1010.9 0.0
27/11:30am 21.2 20.5 13.1 60 4.6 SW 9 20 5 11 1011.5 1011.5 0.0
27/11:00am 20.8 21.0 14.7 68 3.6 SSW 7 13 4 7 1011.7 1011.7 0.0
27/10:30am 20.1 20.5 13.8 67 3.6 SSW 4 7 2 4 1011.5 1011.5 0.0
27/10:00am 19.6 20.7 13.5 68 3.5 CALM 0 7 0 4 1011.1 1011.1 0.0
27/09:30am 18.9 19.8 14.0 73 2.8 NW 2 6 1 3 1011.2 1011.2 0.0
27/09:00am 18.3 18.9 14.2 77 2.4 NNE 4 7 2 4 1011.1 1011.1 0.0
27/08:30am 17.5 17.5 14.2 81 1.9 NNE 7 9 4 5 1010.9 1010.9 0.0
27/08:00am 16.3 17.7 14.3 88 1.1 CALM 0 0 0 0 1011.0 1011.0 0.0
27/07:30am 15.1 16.0 14.0 93 0.6 SSE 2 7 1 4 1010.6 1010.6 0.0
27/07:00am 15.1 15.1 13.6 91 0.8 NE 6 9 3 5 1010.4 1010.4 0.0
27/06:30am 15.0 15.5 14.0 94 0.6 N 4 7 2 4 1010.0 1010.0 0.0
27/06:00am 15.2 16.6 14.4 95 0.5 CALM 0 6 0 3 1009.8 1009.8 0.0
27/05:30am 14.9 16.4 14.6 98 0.2 CALM 0 4 0 2 1010.0 1010.0 0.0
27/05:00am 15.1 16.6 14.6 97 0.3 CALM 0 0 0 0 1009.9 1009.9 0.0
27/04:30am 15.3 16.8 14.7 96 0.3 CALM 0 0 0 0 1010.0 1010.0 0.0
27/04:00am 15.5 17.0 14.7 95 0.5 CALM 0 0 0 0 1010.1 1010.1 0.0
27/03:30am 15.7 17.2 14.6 93 0.6 CALM 0 0 0 0 1010.9 1010.9 0.0
27/03:00am 15.9 17.3 14.3 90 0.9 CALM 0 0 0 0 1010.9 1010.9 0.0
27/02:30am 16.3 17.7 14.3 88 1.1 CALM 0 0 0 0 1010.7 1010.7 0.0
27/02:00am 16.7 18.0 14.0 84 1.5 CALM 0 2 0 1 1010.7 1010.7 0.0
27/01:30am 17.1 18.0 14.0 82 1.8 SSE 2 6 1 3 1011.3 1011.3 0.0
27/01:00am 17.5 18.3 13.6 78 2.2 S 2 9 1 5 1011.4 1011.4 0.0
27/12:30am 18.0 18.7 13.5 75 2.5 S 2 9 1 5 1011.7 1011.7 0.0
27/12:00am 18.6 18.4 13.7 73 2.8 SSE 7 13 4 7 1011.8 1011.8 0.0
 
Date/Time
EDT
Tmp

°C
App
Tmp
°C
Dew
Point
°C
Rel
Hum
%
Delta-T

°C
Wind Press
QNH
hPa
Press
MSL
hPa
Rain
since
9 am
mm
Dir
 
Spd
km/h
Gust
km/h
Spd
kts
Gust
kts
26/11:30pm 18.4 18.8 13.7 74 2.7 S 4 9 2 5 1011.7 1011.7 0.0
26/11:00pm 18.5 18.4 13.4 72 2.9 S 6 15 3 8 1011.7 1011.7 0.0
26/10:30pm 19.0 18.3 13.2 69 3.3 SSE 9 17 5 9 1011.7 1011.7 0.0
26/10:00pm 19.4 18.8 14.6 74 2.8 S 11 19 6 10 1011.6 1011.6 0.0
26/09:30pm 19.5 19.2 14.3 72 3.0 SSW 9 19 5 10 1011.6 1011.6 0.0
26/09:00pm 19.6 19.2 14.0 70 3.2 S 9 17 5 9 1011.3 1011.3 0.0
26/08:30pm 19.5 19.1 14.1 71 3.1 S 9 24 5 13 1010.7 1010.7 0.0
26/08:00pm 19.9 19.0 13.6 67 3.6 SSW 11 20 6 11 1010.3 1010.3 0.0
26/07:30pm 20.1 19.7 14.2 69 3.4 S 9 20 5 11 1010.0 1010.0 0.0
26/07:00pm 20.8 20.4 15.1 70 3.4 S 11 19 6 10 1009.6 1009.6 0.0
26/06:30pm 21.2 20.4 15.1 68 3.6 SSW 13 22 7 12 1009.5 1009.5 0.0
26/06:00pm 21.5 20.5 15.6 69 3.5 SSW 15 24 8 13 1009.2 1009.2 0.0
26/05:30pm 21.5 19.7 14.4 64 4.2 SSW 17 26 9 14 1009.3 1009.3 0.0
26/05:00pm 22.1 21.1 14.7 63 4.4 S 13 22 7 12 1009.3 1009.3 0.0
26/04:30pm 21.8 20.5 14.7 64 4.2 SSW 15 24 8 13 1009.5 1009.5 0.0
26/04:00pm 22.1 20.7 14.5 62 4.5 SSW 15 24 8 13 1009.6 1009.6 0.0
26/03:30pm 22.5 21.3 14.1 59 4.9 SSW 13 20 7 11 1009.9 1009.9 0.0
26/03:00pm 22.2 20.8 13.5 57 5.0 S 13 20 7 11 1010.2 1010.2 0.0
26/02:30pm 22.9 22.6 15.5 63 4.4 S 11 19 6 10 1010.3 1010.3 0.0
26/02:00pm 21.7 20.9 15.1 66 3.9 S 13 22 7 12 1010.7 1010.7 0.0
26/01:30pm 21.8 21.2 15.6 68 3.7 S 13 22 7 12 1010.6 1010.6 0.0
26/01:00pm 21.8 21.8 16.3 71 3.3 S 11 19 6 10 1010.8 1010.8 0.0
26/12:30pm 21.2 20.9 16.4 74 2.9 S 13 20 7 11 1011.1 1011.1 0.0
26/12:00pm 21.2 21.3 15.5 70 3.4 S 9 20 5 11 1011.2 1011.2 0.0
26/11:30am 21.0 21.0 15.3 70 3.4 SSW 9 20 5 11 1011.3 1011.3 0.0
26/11:00am 20.2 20.8 15.2 73 3.0 WSW 6 15 3 8 1011.2 1011.2 0.0
26/10:30am 19.8 19.9 15.4 76 2.6 SSW 9 17 5 9 1011.2 1011.2 0.0
26/10:00am 19.1 19.5 15.4 79 2.2 SW 7 15 4 8 1011.1 1011.1 0.0
26/09:30am 18.7 19.7 15.4 81 1.9 WSW 4 17 2 9 1010.9 1010.9 0.0
26/09:00am 18.0 18.5 14.9 82 1.8 W 6 11 3 6 1010.8 1010.8 0.0
26/08:30am 18.1 18.3 14.6 80 2.0 WSW 7 15 4 8 1010.6 1010.6 0.0
26/08:00am 18.0 19.1 14.5 80 2.0 WSW 2 9 1 5 1010.6 1010.6 0.0
26/07:30am 17.8 18.1 14.5 81 1.9 W 6 15 3 8 1010.1 1010.1 0.0
26/07:00am 17.9 18.1 14.8 82 1.8 W 7 15 4 8 1009.8 1009.8 0.0
26/06:30am 17.6 19.4 15.6 88 1.2 CALM 0 0 0 0 1009.3 1009.3 0.0
26/06:00am 17.7 19.3 15.0 84 1.6 CALM 0 0 0 0 1009.0 1009.0 0.0
26/05:30am 17.8 18.7 15.2 85 1.5 W 4 9 2 5 1009.0 1009.0 0.0
26/05:00am 17.7 19.1 15.3 86 1.4 WSW 2 7 1 4 1008.7 1008.7 0.0
26/04:30am 18.2 20.0 15.6 85 1.5 CALM 0 6 0 3 1008.9 1008.9 0.0
26/04:00am 18.3 19.1 15.9 86 1.4 WSW 6 13 3 7 1008.9 1008.9 0.0
26/03:30am 18.4 19.0 15.8 85 1.5 WSW 7 13 4 7 1009.0 1009.0 0.0
26/03:00am 18.9 19.2 16.1 84 1.7 WSW 9 19 5 10 1009.0 1009.0 0.0
26/02:30am 19.3 20.1 16.3 83 1.8 WSW 7 15 4 8 1009.0 1009.0 0.0
26/02:00am 19.4 20.5 16.6 84 1.7 WSW 6 13 3 7 1009.3 1009.3 0.0
26/01:30am 18.7 20.2 16.7 88 1.2 WSW 4 9 2 5 1009.5 1009.5 0.0
26/01:00am 18.2 20.3 16.2 88 1.2 CALM 0 0 0 0 1009.3 1009.3 0.0
26/12:30am 18.6 20.7 16.2 86 1.4 CALM 0 0 0 0 1009.3 1009.3 0.0
26/12:00am 19.0 21.1 16.2 84 1.7 CALM 0 0 0 0 1009.5 1009.5 0.0
 
Date/Time
EDT
Tmp

°C
App
Tmp
°C
Dew
Point
°C
Rel
Hum
%
Delta-T

°C
Wind Press
QNH
hPa
Press
MSL
hPa
Rain
since
9 am
mm
Dir
 
Spd
km/h
Gust
km/h
Spd
kts
Gust
kts
25/11:30pm 19.3 21.2 15.8 80 2.1 CALM 0 0 0 0 1009.6 1009.6 0.0
25/11:00pm 19.7 21.8 16.2 80 2.1 CALM 0 0 0 0 1009.9 1009.9 0.0
25/10:30pm 20.0 21.9 15.8 77 2.5 CALM 0 0 0 0 1009.7 1009.7 0.0
25/10:00pm 21.1 22.8 15.2 69 3.5 CALM 0 0 0 0 1009.4 1009.4 0.0
25/09:30pm 22.1 23.7 15.0 64 4.2 CALM 0 7 0 4 1009.4 1009.4 0.0
25/09:00pm 23.0 23.2 14.6 59 5.0 SE 7 15 4 8 1009.2 1009.2 0.0
25/08:30pm 23.6 23.3 14.3 56 5.5 SE 9 15 5 8 1009.3 1009.3 0.0
25/08:00pm 24.1 24.0 13.9 53 6.0 SE 7 15 4 8 1009.2 1009.2 0.0
25/07:30pm 24.9 23.4 14.1 51 6.4 SSE 15 24 8 13 1009.3 1009.3 0.0
25/07:00pm 25.8 24.2 14.0 48 7.0 SSE 15 28 8 15 1009.4 1009.4 0.0
25/06:30pm 26.6 25.8 14.0 46 7.5 SSE 11 24 6 13 1009.1 1009.1 0.0
25/06:00pm 25.6 25.3 16.4 56 5.7 SSW 13 22 7 12 1009.3 1009.3 0.0

Latest Capital City Observations: Canberra | Sydney | Melbourne | Brisbane | Adelaide | Perth | Hobart | Darwin

Other Formats:

Comma delimited format used in spreadsheet applications
http://www.bom.gov.au/fwo/IDV60901/IDV60901.95936.axf

JavaScript Object Notation format (JSON) in row-major order
http://www.bom.gov.au/fwo/IDV60901/IDV60901.95936.json